Time;durP1;ratioP1;P1;durP2;ratioP2;P2;SDS_P1;SDS_P2;PMS_P1;PMS_P2;Temp;Humidity;BMP_temperature;BMP_pressure;BME280_temperature;BME280_humidity;BME280_pressure;Samples;Min_cycle;Max_cycle;Signal;HPM_P1;HPM_P2
2023/01/12 00:02:05;;;;;;;;;;;;;;;17.10;51.78;100986.16;5094885;28;1909;-50
2023/01/12 00:04:31;;;;;;;;;;;;;;;16.38;53.46;100996.03;5092528;28;1275;-45
2023/01/12 00:06:57;;;;;;;;;;;;;;;16.08;54.33;100989.28;5094387;28;1328;-43
2023/01/12 00:09:22;;;;;;;;;;;;;;;16.55;53.35;100982.13;5098115;28;1284;-49
2023/01/12 00:11:47;;;;;;;;;;;;;;;17.24;51.38;100991.13;5099022;28;1358;-49
2023/01/12 00:14:13;;;;;;;;;;;;;;;16.42;53.45;100995.25;5099654;28;1158;-45
2023/01/12 00:16:39;;;;;;;;;;;;;;;16.09;54.17;100979.97;5086263;28;1165;-46
2023/01/12 00:19:09;;;;;;;;;;;;;;;15.93;54.44;100964.50;5100044;28;1178;-46
2023/01/12 00:24:19;;;;;;;;;;;;;;;17.07;51.86;100967.47;5085700;28;1138;-49
2023/01/12 00:26:45;;;;;;;;;;;;;;;16.26;53.97;100968.81;5099244;28;1209;-47
2023/01/12 00:29:10;;;;;;;;;;;;;;;16.00;54.36;100976.06;5094953;28;1047;-48
2023/01/12 00:31:36;;;;;;;;;;;;;;;17.21;51.76;100961.47;5078113;28;1633;-47
2023/01/12 00:34:01;;;;;;;;;;;;;;;16.80;52.37;100955.84;5092858;28;1159;-46
2023/01/12 00:36:26;;;;;;;;;;;;;;;16.22;53.64;100948.50;5089126;28;1043;-47
2023/01/12 00:38:52;;;;;;;;;;;;;;;15.97;54.45;100933.53;5096329;28;1142;-49
2023/01/12 00:46:46;;;;;;;;;;;;;;;16.12;54.30;100951.16;5092843;28;1094;-48
2023/01/12 00:49:11;;;;;;;;;;;;;;;15.93;54.55;100923.38;5079033;28;1007;-45
2023/01/12 00:51:37;;;;;;;;;;;;;;;16.67;53.08;100919.56;5080157;28;1058;-45
2023/01/12 00:54:03;;;;;;;;;;;;;;;17.07;51.75;100922.72;5091326;28;1098;-46
2023/01/12 00:56:31;;;;;;;;;;;;;;;16.28;53.78;100911.75;5092165;28;1198;-45
2023/01/12 00:58:57;;;;;;;;;;;;;;;16.00;54.29;100915.75;5087404;28;1035;-48
2023/01/12 01:01:22;;;;;;;;;;;;;;;17.37;51.31;100897.13;5090829;28;1910;-45
2023/01/12 01:03:47;;;;;;;;;;;;;;;16.48;53.28;100885.47;5097911;28;1428;-47
2023/01/12 01:06:13;;;;;;;;;;;;;;;16.10;54.00;100893.03;5097591;28;1145;-48
2023/01/12 01:08:38;;;;;;;;;;;;;;;16.37;53.64;100885.44;5084922;28;1141;-49
2023/01/12 01:11:05;;;;;;;;;;;;;;;17.24;51.10;100871.03;5085533;28;1182;-47
2023/01/12 01:13:30;;;;;;;;;;;;;;;16.41;53.34;100880.22;5085055;28;1126;-44
2023/01/12 01:15:59;;;;;;;;;;;;;;;16.10;54.25;100895.75;5089451;28;860;-48
2023/01/12 01:18:25;;;;;;;;;;;;;;;16.40;53.51;100917.84;5079354;28;1055;-45
2023/01/12 01:20:50;;;;;;;;;;;;;;;17.24;51.36;100917.75;5096979;28;1061;-44
2023/01/12 01:23:16;;;;;;;;;;;;;;;16.40;53.42;100903.31;5084812;28;1984;-48
2023/01/12 01:25:41;;;;;;;;;;;;;;;16.04;54.27;100884.75;5098428;28;1138;-47
2023/01/12 01:28:07;;;;;;;;;;;;;;;16.12;54.15;100885.34;5097738;28;1132;-49
2023/01/12 01:30:32;;;;;;;;;;;;;;;17.55;50.47;100875.69;5091619;28;1034;-45
2023/01/12 01:32:57;;;;;;;;;;;;;;;16.55;52.98;100886.03;5091818;28;1047;-44
2023/01/12 01:35:23;;;;;;;;;;;;;;;16.14;53.94;100883.97;5078110;28;971;-49
2023/01/12 01:37:48;;;;;;;;;;;;;;;16.10;54.35;100882.84;5091074;28;1213;-47
2023/01/12 01:40:14;;;;;;;;;;;;;;;17.49;50.78;100871.28;5084766;28;852;-45
2023/01/12 01:42:39;;;;;;;;;;;;;;;16.51;53.10;100882.19;5097973;28;1922;-44
2023/01/12 01:45:05;;;;;;;;;;;;;;;16.13;54.10;100874.13;5091285;28;1124;-48
2023/01/12 01:47:40;;;;;;;;;;;;;;;16.33;53.81;100872.53;5077456;28;1078;-45
2023/01/12 01:50:11;;;;;;;;;;;;;;;17.21;51.45;100873.53;5077509;28;1062;-46
2023/01/12 01:52:37;;;;;;;;;;;;;;;16.34;53.70;100885.16;5089672;28;1131;-46
2023/01/12 01:55:23;;;;;;;;;;;;;;;16.05;54.22;100888.34;5103174;28;1070;-46
2023/01/12 01:57:54;;;;;;;;;;;;;;;17.49;50.81;100890.53;5083515;28;1359;-49
2023/01/12 02:00:19;;;;;;;;;;;;;;;16.71;52.74;100904.19;5084529;28;1210;-45
2023/01/12 02:02:45;;;;;;;;;;;;;;;16.28;53.81;100899.97;5083016;28;1902;-42
2023/01/12 02:05:10;;;;;;;;;;;;;;;16.01;54.23;100909.97;5095887;28;850;-42
2023/01/12 02:07:36;;;;;;;;;;;;;;;15.97;54.29;100905.31;5092515;28;1094;-45
2023/01/12 02:10:02;;;;;;;;;;;;;;;17.48;50.65;100894.38;5105342;28;1261;-48
2023/01/12 02:18:01;;;;;;;;;;;;;;;16.58;53.19;100904.72;5087537;28;1054;-47
2023/01/12 02:20:26;;;;;;;;;;;;;;;17.27;51.15;100905.38;5097375;28;1022;-47
2023/01/12 02:22:55;;;;;;;;;;;;;;;16.42;53.50;100912.91;5097643;28;1901;-44
2023/01/12 02:25:20;;;;;;;;;;;;;;;16.08;54.18;100918.78;5097548;28;1170;-45
2023/01/12 02:28:00;;;;;;;;;;;;;;;15.92;54.20;100919.78;5096272;28;1226;-47
2023/01/12 02:30:45;;;;;;;;;;;;;;;17.32;51.39;100919.13;5095995;28;1516;-46
2023/01/12 02:33:16;;;;;;;;;;;;;;;16.71;52.50;100923.41;5095066;28;1026;-46
2023/01/12 02:35:47;;;;;;;;;;;;;;;16.20;53.84;100918.59;5076910;28;1058;-45
2023/01/12 02:38:19;;;;;;;;;;;;;;;16.14;54.11;100924.31;5080558;28;1035;-46
2023/01/12 02:40:47;;;;;;;;;;;;;;;17.68;50.28;100923.78;5084285;28;1194;-47
2023/01/12 02:43:21;;;;;;;;;;;;;;;16.66;52.69;100934.41;5091799;28;1982;-49
2023/01/12 02:45:54;;;;;;;;;;;;;;;16.19;53.77;100918.84;5090144;28;1175;-46
2023/01/12 02:48:27;;;;;;;;;;;;;;;15.99;54.17;100908.59;5088662;28;1150;-44
2023/01/12 02:50:56;;;;;;;;;;;;;;;17.20;51.60;100915.84;5091311;28;1185;-48
2023/01/12 02:53:21;;;;;;;;;;;;;;;16.75;52.65;100920.97;5096637;28;948;-45
2023/01/12 02:55:47;;;;;;;;;;;;;;;16.24;53.66;100932.59;5096220;28;1074;-48
2023/01/12 02:58:13;;;;;;;;;;;;;;;15.99;54.34;100936.88;5095369;28;1078;-49
2023/01/12 03:00:38;;;;;;;;;;;;;;;15.89;54.50;100936.78;5094158;28;1058;-48
2023/01/12 03:03:04;;;;;;;;;;;;;;;17.43;50.84;100948.28;5092439;28;1972;-47
2023/01/12 03:05:30;;;;;;;;;;;;;;;16.60;52.77;100946.44;5077122;28;1033;-45
2023/01/12 03:07:57;;;;;;;;;;;;;;;16.13;53.96;100937.22;5096668;28;1043;-48
2023/01/12 03:10:35;;;;;;;;;;;;;;;17.15;51.72;100932.31;5095387;28;1096;-47
2023/01/12 03:13:04;;;;;;;;;;;;;;;16.59;52.80;100934.66;5086203;28;1197;-46
2023/01/12 03:15:30;;;;;;;;;;;;;;;16.15;53.72;100939.69;5092385;28;1118;-46
2023/01/12 03:17:59;;;;;;;;;;;;;;;15.92;54.18;100947.22;5075033;28;875;-46
2023/01/12 03:20:25;;;;;;;;;;;;;;;15.86;54.41;100948.28;5080042;28;1113;-43
2023/01/12 03:22:52;;;;;;;;;;;;;;;17.44;50.90;100958.16;5094960;28;1909;-47
2023/01/12 03:25:18;;;;;;;;;;;;;;;16.55;52.92;100947.28;5077832;28;1170;-46
2023/01/12 03:27:44;;;;;;;;;;;;;;;16.13;53.81;100953.69;5085676;28;1190;-46
2023/01/12 03:30:14;;;;;;;;;;;;;;;15.94;54.11;100939.56;5091906;28;871;-49
2023/01/12 03:32:39;;;;;;;;;;;;;;;17.04;51.84;100929.56;5103554;28;1066;-48
2023/01/12 03:35:07;;;;;;;;;;;;;;;16.96;51.86;100941.09;5081573;28;1146;-47
2023/01/12 03:37:36;;;;;;;;;;;;;;;16.30;53.69;100933.44;5085177;28;1102;-49
2023/01/12 03:40:11;;;;;;;;;;;;;;;16.02;54.08;100943.72;5092891;28;1147;-50
2023/01/12 03:42:46;;;;;;;;;;;;;;;15.95;54.49;100935.75;5082727;28;1901;-48
2023/01/12 03:45:12;;;;;;;;;;;;;;;17.44;50.74;100944.41;5088650;28;1099;-46
2023/01/12 03:47:37;;;;;;;;;;;;;;;16.43;53.24;100947.47;5086483;28;1134;-49
2023/01/12 03:50:04;;;;;;;;;;;;;;;16.06;54.16;100959.41;5100200;28;1126;-44
2023/01/12 03:52:30;;;;;;;;;;;;;;;15.89;54.22;100958.72;5099469;28;1042;-47
2023/01/12 03:54:56;;;;;;;;;;;;;;;17.28;51.18;100960.09;5090956;28;1334;-47
2023/01/12 03:57:21;;;;;;;;;;;;;;;16.76;52.43;100945.41;5109893;28;1011;-47
2023/01/12 03:59:47;;;;;;;;;;;;;;;16.20;53.84;100942.44;5103533;28;1059;-45
2023/01/12 04:02:12;;;;;;;;;;;;;;;15.95;54.14;100933.00;5085992;28;1902;-44
2023/01/12 04:04:37;;;;;;;;;;;;;;;16.14;54.10;100938.03;5092690;28;1170;-47
2023/01/12 04:07:03;;;;;;;;;;;;;;;17.31;50.99;100933.16;5093317;28;1043;-48
2023/01/12 04:09:28;;;;;;;;;;;;;;;16.37;53.25;100948.56;5087611;28;1147;-49
2023/01/12 04:12:09;;;;;;;;;;;;;;;16.03;54.07;100948.13;5099259;28;1047;-47
2023/01/12 04:14:34;;;;;;;;;;;;;;;16.38;53.43;100942.00;5100134;28;999;-50
2023/01/12 04:17:00;;;;;;;;;;;;;;;17.23;51.17;100927.09;5099168;28;1226;-44
2023/01/12 04:19:25;;;;;;;;;;;;;;;16.35;53.56;100928.78;5090380;28;1177;-49
2023/01/12 04:24:35;;;;;;;;;;;;;;;15.84;54.30;100940.34;5087905;28;1193;-42
2023/01/12 04:27:00;;;;;;;;;;;;;;;16.36;53.64;100946.09;5096735;28;1104;-46
2023/01/12 04:29:26;;;;;;;;;;;;;;;17.45;50.55;100950.75;5098875;28;1388;-49
2023/01/12 04:31:51;;;;;;;;;;;;;;;16.43;53.15;100961.22;5098747;28;1065;-42
2023/01/12 04:34:17;;;;;;;;;;;;;;;16.07;54.04;100961.06;5096038;28;1272;-48
2023/01/12 04:36:42;;;;;;;;;;;;;;;17.06;51.89;100952.09;5096266;28;1285;-49
2023/01/12 04:39:08;;;;;;;;;;;;;;;16.80;52.16;100969.56;5091003;28;1030;-51
2023/01/12 04:41:33;;;;;;;;;;;;;;;16.21;53.45;100982.50;5080596;28;1909;-54
2023/01/12 04:43:59;;;;;;;;;;;;;;;15.97;54.30;100976.63;5099311;28;1241;-54
2023/01/12 04:46:24;;;;;;;;;;;;;;;16.53;52.96;100987.06;5099015;28;1061;-54
2023/01/12 04:48:49;;;;;;;;;;;;;;;17.13;51.30;100979.31;5090637;28;1110;-49
2023/01/12 04:51:15;;;;;;;;;;;;;;;16.30;53.39;100978.19;5093595;28;1019;-49
2023/01/12 04:53:40;;;;;;;;;;;;;;;15.98;54.04;100990.06;5093895;28;851;-50
2023/01/12 04:56:06;;;;;;;;;;;;;;;16.77;52.51;101001.16;5094323;28;1105;-52
2023/01/12 04:58:31;;;;;;;;;;;;;;;17.09;51.49;101000.97;5099272;28;1146;-49
2023/01/12 05:00:57;;;;;;;;;;;;;;;16.30;53.26;101005.63;5099211;28;1054;-50
2023/01/12 05:03:22;;;;;;;;;;;;;;;16.07;53.83;101010.44;5098432;28;1972;-50
2023/01/12 05:05:48;;;;;;;;;;;;;;;16.30;53.76;101021.25;5098714;28;1085;-48
2023/01/12 05:10:58;;;;;;;;;;;;;;;16.38;53.26;101029.81;5098304;28;1385;-50
2023/01/12 05:13:24;;;;;;;;;;;;;;;16.06;53.88;101029.88;5098689;28;1198;-48
2023/01/12 05:15:49;;;;;;;;;;;;;;;15.94;54.36;101049.28;5098402;28;1193;-47
2023/01/12 05:18:15;;;;;;;;;;;;;;;16.48;53.28;101036.44;5085571;28;898;-49
2023/01/12 05:20:40;;;;;;;;;;;;;;;17.21;51.29;101044.72;5097962;28;1133;-49
2023/01/12 05:23:05;;;;;;;;;;;;;;;16.35;53.40;101038.56;5096673;28;2113;-48
2023/01/12 05:25:32;;;;;;;;;;;;;;;16.03;54.22;101047.69;5097597;28;2038;-49
2023/01/12 05:27:58;;;;;;;;;;;;;;;15.83;54.63;101059.31;5097793;28;1958;-49
2023/01/12 05:30:23;;;;;;;;;;;;;;;16.54;53.21;101060.09;5089511;28;1868;-49
2023/01/12 05:32:49;;;;;;;;;;;;;;;17.02;51.59;101051.81;5097314;28;1846;-47
2023/01/12 05:35:14;;;;;;;;;;;;;;;16.23;53.83;101052.50;5097135;28;2469;-47
2023/01/12 05:37:40;;;;;;;;;;;;;;;15.91;54.56;101044.31;5097339;28;2093;-50
2023/01/12 05:40:05;;;;;;;;;;;;;;;15.91;54.40;101049.81;5097305;28;1119;-50
2023/01/12 05:45:15;;;;;;;;;;;;;;;16.43;53.15;101057.28;5097523;28;1001;-50
2023/01/12 05:47:40;;;;;;;;;;;;;;;16.06;53.85;101051.81;5097374;28;1011;-51
2023/01/12 05:50:06;;;;;;;;;;;;;;;15.81;54.41;101055.19;5097342;28;1022;-50
2023/01/12 05:52:31;;;;;;;;;;;;;;;15.79;54.76;101049.13;5097448;28;1087;-49
2023/01/12 05:54:57;;;;;;;;;;;;;;;17.39;50.75;101050.78;5096969;28;911;-49
2023/01/12 05:57:22;;;;;;;;;;;;;;;16.69;52.20;101057.41;5097291;28;1077;-51
2023/01/12 05:59:47;;;;;;;;;;;;;;;16.16;53.80;101056.53;5097450;28;1149;-49
2023/01/12 06:02:16;;;;;;;;;;;;;;;15.91;54.39;101066.25;5097449;28;1909;-52
2023/01/12 06:04:42;;;;;;;;;;;;;;;15.84;54.58;101065.66;5097697;28;1031;-51
2023/01/12 06:07:09;;;;;;;;;;;;;;;17.36;50.78;101071.44;5087464;28;2419;-49
2023/01/12 06:09:35;;;;;;;;;;;;;;;16.45;52.88;101064.41;5096265;28;1092;-48
2023/01/12 06:14:44;;;;;;;;;;;;;;;16.10;54.03;101085.84;5096952;28;1118;-49
2023/01/12 06:17:10;;;;;;;;;;;;;;;17.52;50.11;101093.44;5096631;28;1114;-51
2023/01/12 06:19:35;;;;;;;;;;;;;;;16.50;52.89;101097.41;5096789;28;1112;-54
2023/01/12 06:22:01;;;;;;;;;;;;;;;16.36;53.72;101106.09;5097294;28;2000;-55
2023/01/12 06:24:27;;;;;;;;;;;;;;;16.88;51.75;101095.41;5097059;28;1086;-53
2023/01/12 06:26:52;;;;;;;;;;;;;;;16.20;51.49;101088.69;5096754;28;1026;-54
2023/01/12 06:29:18;;;;;;;;;;;;;;;15.96;50.91;101085.47;5097204;28;1046;-52
2023/01/12 06:31:43;;;;;;;;;;;;;;;16.41;52.02;101069.59;5096622;28;990;-55
2023/01/12 06:34:09;;;;;;;;;;;;;;;16.56;52.19;101079.84;5096697;28;1185;-54
2023/01/12 06:36:34;;;;;;;;;;;;;;;18.20;49.56;101081.38;5090232;28;1965;-53
2023/01/12 06:39:01;;;;;;;;;;;;;;;16.83;51.32;101087.13;5087412;28;1031;-54
2023/01/12 06:44:10;;;;;;;;;;;;;;;16.22;49.56;101088.44;5083226;28;1083;-52
2023/01/12 06:46:35;;;;;;;;;;;;;;;17.07;51.32;101088.38;5083316;28;970;-50
2023/01/12 06:49:01;;;;;;;;;;;;;;;16.55;51.51;101080.94;5096304;28;1055;-55
2023/01/12 06:51:26;;;;;;;;;;;;;;;18.17;50.37;101084.69;5076385;28;1027;-55
2023/01/12 06:53:52;;;;;;;;;;;;;;;17.79;50.80;101098.69;5076527;28;1059;-52
2023/01/12 06:56:17;;;;;;;;;;;;;;;16.90;50.59;101098.72;5089774;28;1134;-51
2023/01/12 06:58:43;;;;;;;;;;;;;;;16.60;49.75;101097.44;5089543;28;1087;-52
2023/01/12 07:01:08;;;;;;;;;;;;;;;16.57;49.80;101098.00;5096057;28;1082;-52
2023/01/12 07:03:33;;;;;;;;;;;;;;;16.92;51.00;101107.53;5095777;28;1909;-47
2023/01/12 07:05:59;;;;;;;;;;;;;;;16.49;50.14;101113.03;5084446;28;1975;-53
2023/01/12 07:08:25;;;;;;;;;;;;;;;16.71;50.57;101118.38;5076200;28;1065;-53
2023/01/12 07:10:50;;;;;;;;;;;;;;;16.84;50.61;101119.81;5076347;28;1114;-53
2023/01/12 07:13:16;;;;;;;;;;;;;;;16.45;49.71;101113.81;5086444;28;1269;-50
2023/01/12 07:15:41;;;;;;;;;;;;;;;17.79;50.06;101105.03;5082941;28;1026;-54
2023/01/12 07:18:06;;;;;;;;;;;;;;;16.64;51.10;101101.31;5095684;28;1043;-51
2023/01/12 07:20:32;;;;;;;;;;;;;;;17.04;51.28;101115.53;5082895;28;1110;-51
2023/01/12 07:22:57;;;;;;;;;;;;;;;17.27;50.81;101119.75;5088515;28;1909;-50
2023/01/12 07:25:24;;;;;;;;;;;;;;;16.77;50.00;101111.84;5084706;28;1069;-50
2023/01/12 07:27:50;;;;;;;;;;;;;;;16.65;50.17;101116.72;5086034;28;995;-55
2023/01/12 07:30:16;;;;;;;;;;;;;;;17.16;50.73;101120.81;5090481;28;1122;-55
2023/01/12 07:32:42;;;;;;;;;;;;;;;16.48;50.22;101127.03;5083037;28;1226;-51
2023/01/12 07:35:07;;;;;;;;;;;;;;;18.05;49.85;101132.59;5076308;28;1058;-55
2023/01/12 07:37:33;;;;;;;;;;;;;;;17.13;50.74;101133.19;5082307;28;2126;-57
2023/01/12 07:39:58;;;;;;;;;;;;;;;16.59;49.62;101129.59;5095923;28;991;-51
2023/01/12 07:42:24;;;;;;;;;;;;;;;17.42;50.85;101133.56;5082014;28;1976;-54
2023/01/12 07:44:50;;;;;;;;;;;;;;;16.79;50.16;101129.94;5074377;28;1128;-57
2023/01/12 07:47:15;;;;;;;;;;;;;;;16.50;49.20;101139.38;5095928;28;1071;-57
2023/01/12 07:49:41;;;;;;;;;;;;;;;16.29;48.41;101134.84;5095852;28;1075;-55
2023/01/12 07:52:06;;;;;;;;;;;;;;;17.24;49.99;101137.63;5095768;28;1134;-55
2023/01/12 07:54:35;;;;;;;;;;;;;;;16.83;50.27;101139.31;5094917;28;1083;-56
2023/01/12 07:57:00;;;;;;;;;;;;;;;16.51;49.07;101145.69;5093937;28;1245;-54
2023/01/12 07:59:26;;;;;;;;;;;;;;;17.42;50.13;101139.06;5083812;28;1139;-55
2023/01/12 08:01:53;;;;;;;;;;;;;;;16.74;50.20;101144.50;5083824;28;1911;-55
2023/01/12 08:04:19;;;;;;;;;;;;;;;16.41;49.13;101136.31;5089243;28;1186;-52
2023/01/12 08:06:44;;;;;;;;;;;;;;;16.67;49.46;101128.25;5085580;28;2482;-53
2023/01/12 08:09:10;;;;;;;;;;;;;;;16.88;50.22;101125.63;5090524;28;1153;-60
2023/01/12 08:11:36;;;;;;;;;;;;;;;16.45;49.53;101124.81;5093437;28;1110;-55
2023/01/12 08:14:03;;;;;;;;;;;;;;;17.32;49.64;101128.03;5091296;28;1099;-53
2023/01/12 08:16:39;;;;;;;;;;;;;;;16.85;50.25;101135.22;5094907;28;1522;-52
2023/01/12 08:19:12;;;;;;;;;;;;;;;17.51;49.98;101133.84;5082215;28;840;-50
2023/01/12 08:21:43;;;;;;;;;;;;;;;17.92;49.46;101135.88;5092325;28;1982;-54
2023/01/12 08:24:09;;;;;;;;;;;;;;;17.01;49.77;101138.91;5095042;28;1149;-54
2023/01/12 08:26:35;;;;;;;;;;;;;;;16.67;49.00;101143.91;5094606;28;1006;-54
2023/01/12 08:29:02;;;;;;;;;;;;;;;16.47;48.10;101150.09;5096072;28;1038;-54
2023/01/12 08:31:28;;;;;;;;;;;;;;;16.45;48.23;101153.06;5098258;28;1070;-55
2023/01/12 08:33:53;;;;;;;;;;;;;;;17.08;50.25;101166.97;5097913;28;1278;-52
2023/01/12 08:36:19;;;;;;;;;;;;;;;16.53;49.27;101149.03;5095675;28;1952;-53
2023/01/12 08:38:44;;;;;;;;;;;;;;;16.84;49.69;101165.69;5099124;28;1155;-53
2023/01/12 08:44:02;;;;;;;;;;;;;;;16.56;49.40;101167.72;5098549;28;1052;-54
2023/01/12 08:46:32;;;;;;;;;;;;;;;17.74;49.66;101173.78;5098697;28;1161;-54
2023/01/12 08:48:58;;;;;;;;;;;;;;;16.84;49.74;101166.50;5099332;28;1166;-54
2023/01/12 08:51:23;;;;;;;;;;;;;;;17.43;50.24;101167.34;5098778;28;1034;-54
2023/01/12 08:53:48;;;;;;;;;;;;;;;17.17;50.15;101180.19;5098769;28;1078;-54
2023/01/12 08:56:14;;;;;;;;;;;;;;;17.00;49.95;101181.19;5092720;28;1102;-49
2023/01/12 08:58:39;;;;;;;;;;;;;;;18.34;48.64;101180.75;5091006;28;1063;-51
2023/01/12 09:01:08;;;;;;;;;;;;;;;17.19;50.06;101178.00;5080439;28;1031;-52
2023/01/12 09:03:34;;;;;;;;;;;;;;;16.87;48.78;101185.22;5090616;28;1918;-53
2023/01/12 09:06:06;;;;;;;;;;;;;;;16.61;47.98;101178.72;5097325;28;1961;-52
2023/01/12 09:08:32;;;;;;;;;;;;;;;16.38;47.45;101185.41;5090258;28;914;-51
2023/01/12 09:11:00;;;;;;;;;;;;;;;16.62;47.92;101185.03;5078688;28;1150;-53
2023/01/12 09:13:26;;;;;;;;;;;;;;;17.10;49.72;101192.22;5091799;28;1066;-50
2023/01/12 09:15:51;;;;;;;;;;;;;;;17.77;49.61;101189.75;5098210;28;1039;-52
2023/01/12 09:18:17;;;;;;;;;;;;;;;18.96;48.18;101192.53;5098104;28;1007;-54
2023/01/12 09:20:42;;;;;;;;;;;;;;;17.75;49.92;101200.19;5097944;28;995;-53
2023/01/12 09:23:08;;;;;;;;;;;;;;;17.14;49.43;101191.69;5097948;28;1905;-52
2023/01/12 09:25:33;;;;;;;;;;;;;;;16.87;48.32;101192.63;5092881;28;1104;-58
2023/01/12 09:27:59;;;;;;;;;;;;;;;16.72;47.46;101199.69;5078103;28;1046;-57
2023/01/12 09:30:24;;;;;;;;;;;;;;;17.21;49.10;101198.63;5096353;28;1182;-57
2023/01/12 09:32:50;;;;;;;;;;;;;;;16.90;49.17;101184.72;5097442;28;856;-56
2023/01/12 09:35:18;;;;;;;;;;;;;;;17.41;49.49;101192.38;5084343;28;1150;-53
2023/01/12 09:37:45;;;;;;;;;;;;;;;17.92;49.96;101197.22;5094548;28;2101;-52
2023/01/12 09:40:12;;;;;;;;;;;;;;;16.98;49.92;101216.34;5097415;28;1058;-56
2023/01/12 09:48:10;;;;;;;;;;;;;;;16.82;49.65;101198.09;5094682;28;1202;-55
2023/01/12 09:50:39;;;;;;;;;;;;;;;17.21;49.88;101184.88;5093052;28;1012;-55
2023/01/12 09:53:18;;;;;;;;;;;;;;;17.02;50.14;101183.69;5075950;28;1122;-46
2023/01/12 09:55:50;;;;;;;;;;;;;;;16.70;48.83;101170.81;5087931;28;1047;-49
2023/01/12 09:58:34;;;;;;;;;;;;;;;17.71;49.27;101168.84;5091724;28;1102;-54
2023/01/12 10:01:00;;;;;;;;;;;;;;;16.82;49.48;101178.88;5081588;28;1077;-56
2023/01/12 10:03:34;;;;;;;;;;;;;;;17.13;49.59;101168.09;5097523;28;1970;-52
2023/01/12 10:06:00;;;;;;;;;;;;;;;17.42;49.49;101166.53;5078351;28;1848;-53
2023/01/12 10:08:38;;;;;;;;;;;;;;;17.07;50.06;101159.81;5088653;28;1004;-56
2023/01/12 10:11:06;;;;;;;;;;;;;;;18.71;47.83;101158.41;5096380;28;984;-57
2023/01/12 10:13:55;;;;;;;;;;;;;;;17.24;49.50;101161.53;5095520;28;1043;-57
2023/01/12 10:16:40;;;;;;;;;;;;;;;16.85;48.46;101167.34;5088922;28;1366;-55
2023/01/12 10:19:10;;;;;;;;;;;;;;;16.65;47.49;101160.63;5095653;28;1576;-51
2023/01/12 10:21:35;;;;;;;;;;;;;;;17.66;49.26;101163.31;5110590;28;1906;-52
2023/01/12 10:24:01;;;;;;;;;;;;;;;16.91;49.30;101171.81;5082691;28;1003;-54
2023/01/12 10:26:30;;;;;;;;;;;;;;;16.62;48.50;101161.19;5097105;28;990;-55
2023/01/12 10:28:57;;;;;;;;;;;;;;;16.93;48.77;101151.22;5094618;28;1159;-53
2023/01/12 10:31:23;;;;;;;;;;;;;;;17.13;49.52;101162.59;5094324;28;1078;-53
2023/01/12 10:34:00;;;;;;;;;;;;;;;16.72;48.54;101158.47;5095999;28;1133;-55
2023/01/12 10:36:26;;;;;;;;;;;;;;;17.01;48.96;101160.88;5092375;28;2265;-54
2023/01/12 10:38:51;;;;;;;;;;;;;;;16.95;49.28;101155.63;5096931;28;1047;-54
2023/01/12 10:41:19;;;;;;;;;;;;;;;16.95;49.22;101161.13;5096717;28;1048;-54
2023/01/12 10:43:46;;;;;;;;;;;;;;;18.11;48.45;101166.44;5096263;28;1906;-54
2023/01/12 10:46:11;;;;;;;;;;;;;;;17.09;48.98;101167.78;5094986;28;1209;-54
2023/01/12 10:48:41;;;;;;;;;;;;;;;16.63;48.35;101165.56;5097002;28;1061;-54
2023/01/12 10:51:16;;;;;;;;;;;;;;;17.48;49.19;101163.81;5096272;28;1002;-54
2023/01/12 10:53:42;;;;;;;;;;;;;;;16.67;49.29;101160.38;5095173;28;1116;-54
2023/01/12 10:56:12;;;;;;;;;;;;;;;16.56;47.81;101159.47;5085339;28;1019;-53
2023/01/12 10:58:37;;;;;;;;;;;;;;;17.65;48.49;101156.16;5095917;28;1155;-52
2023/01/12 11:01:04;;;;;;;;;;;;;;;16.72;49.28;101180.44;5096322;28;1023;-54
2023/01/12 11:03:30;;;;;;;;;;;;;;;17.89;48.60;101174.91;5096593;28;1990;-54
2023/01/12 11:05:55;;;;;;;;;;;;;;;17.64;49.12;101167.41;5094990;28;2386;-53
2023/01/12 11:08:21;;;;;;;;;;;;;;;16.95;48.98;101166.63;5086591;28;1055;-52
2023/01/12 11:10:46;;;;;;;;;;;;;;;17.24;48.77;101165.09;5095976;28;1430;-54
2023/01/12 11:13:21;;;;;;;;;;;;;;;17.40;48.97;101163.25;5095130;28;1027;-54
2023/01/12 11:16:01;;;;;;;;;;;;;;;16.85;48.61;101159.13;5094783;28;1158;-53
2023/01/12 11:18:47;;;;;;;;;;;;;;;16.62;47.53;101163.91;5094875;28;1050;-50
2023/01/12 11:21:13;;;;;;;;;;;;;;;17.69;48.52;101162.75;5088390;28;1423;-55
2023/01/12 11:23:42;;;;;;;;;;;;;;;16.82;48.98;101162.41;5095025;28;2000;-54
2023/01/12 11:26:12;;;;;;;;;;;;;;;16.55;47.98;101157.81;5095560;28;1034;-54
2023/01/12 11:28:38;;;;;;;;;;;;;;;18.05;48.27;101182.13;5093493;28;1107;-53
2023/01/12 11:31:05;;;;;;;;;;;;;;;17.23;48.57;101168.13;5088964;28;1401;-47
2023/01/12 11:33:34;;;;;;;;;;;;;;;17.36;48.97;101175.88;5094340;28;1158;-53
2023/01/12 11:36:05;;;;;;;;;;;;;;;17.89;48.35;101163.91;5094612;28;1838;-58
2023/01/12 11:38:34;;;;;;;;;;;;;;;16.93;48.83;101158.63;5082917;28;1019;-58
2023/01/12 11:40:59;;;;;;;;;;;;;;;16.71;47.93;101162.31;5096035;28;987;-56
2023/01/12 11:46:14;;;;;;;;;;;;;;;15.90;46.88;101152.34;5095650;28;978;-61
2023/01/12 11:49:03;;;;;;;;;;;;;;;17.87;46.74;101164.16;5084960;28;1138;-57
2023/01/12 11:51:29;;;;;;;;;;;;;;;16.64;48.13;101153.47;5072433;28;1250;-55
2023/01/12 11:53:54;;;;;;;;;;;;;;;18.35;46.59;101157.63;5074930;28;1047;-56
2023/01/12 11:56:23;;;;;;;;;;;;;;;17.66;47.87;101155.06;5075967;28;1170;-54
2023/01/12 11:59:08;;;;;;;;;;;;;;;16.87;48.21;101155.00;5088989;28;1201;-56
2023/01/12 12:01:46;;;;;;;;;;;;;;;16.54;47.70;101151.50;5093169;28;1964;-55
2023/01/12 12:04:11;;;;;;;;;;;;;;;17.28;48.02;101151.66;5079440;28;1159;-57
2023/01/12 12:06:40;;;;;;;;;;;;;;;17.13;48.31;101152.41;5079453;28;1993;-57
2023/01/12 12:09:08;;;;;;;;;;;;;;;16.52;47.87;101159.19;5093887;28;1095;-58
2023/01/12 12:11:36;;;;;;;;;;;;;;;17.51;47.66;101155.03;5091694;28;1165;-53
2023/01/12 12:14:07;;;;;;;;;;;;;;;16.53;47.88;101154.50;5088968;28;1178;-58
2023/01/12 12:16:51;;;;;;;;;;;;;;;16.88;47.57;101153.06;5103688;28;993;-56
2023/01/12 12:19:25;;;;;;;;;;;;;;;16.56;47.13;101171.28;5087198;28;1087;-65
2023/01/12 12:22:10;;;;;;;;;;;;;;;16.58;47.30;101163.59;5088069;28;1905;-55
2023/01/12 12:24:41;;;;;;;;;;;;;;;17.22;45.52;101163.72;5096940;28;1206;-53
2023/01/12 12:27:27;;;;;;;;;;;;;;;16.10;47.19;101157.19;5098202;28;915;-54
2023/01/12 12:30:06;;;;;;;;;;;;;;;17.97;44.38;101157.88;5044267;28;1207;-54
2023/01/12 12:32:43;;;;;;;;;;;;;;;16.71;46.57;101172.47;5085304;28;1091;-55
2023/01/12 12:35:21;;;;;;;;;;;;;;;17.97;44.95;101177.16;5102049;28;1091;-53
2023/01/12 12:37:51;;;;;;;;;;;;;;;17.50;46.10;101167.09;5098724;28;1887;-55
2023/01/12 12:40:20;;;;;;;;;;;;;;;16.68;47.24;101159.28;5088104;28;1170;-56
2023/01/12 12:45:55;;;;;;;;;;;;;;;17.42;47.21;101158.28;5098114;28;1053;-52
2023/01/12 12:48:31;;;;;;;;;;;;;;;19.06;44.15;101159.44;5098867;28;1026;-56
2023/01/12 12:50:59;;;;;;;;;;;;;;;17.56;46.82;101168.78;5084072;28;1023;-57
2023/01/12 12:53:28;;;;;;;;;;;;;;;17.08;47.23;101164.22;5097751;28;991;-55
2023/01/12 12:55:56;;;;;;;;;;;;;;;16.89;46.40;101169.31;5083992;28;1150;-55
2023/01/12 12:58:21;;;;;;;;;;;;;;;17.66;47.03;101163.31;5092587;28;924;-52
2023/01/12 13:00:47;;;;;;;;;;;;;;;16.88;47.89;101170.41;5093385;28;1341;-60
2023/01/12 13:03:31;;;;;;;;;;;;;;;16.58;47.48;101173.78;5097354;28;1902;-58
2023/01/12 13:06:15;;;;;;;;;;;;;;;16.40;46.78;101167.59;5095034;28;1835;-58
2023/01/12 13:08:41;;;;;;;;;;;;;;;16.94;47.61;101165.75;5094697;28;1190;-50
2023/01/12 13:11:06;;;;;;;;;;;;;;;16.45;47.28;101171.47;5098540;28;1234;-52
2023/01/12 13:13:35;;;;;;;;;;;;;;;16.31;46.88;101163.66;5097176;28;1278;-49
2023/01/12 13:16:39;;;;;;;;;;;;;;;16.48;46.76;101176.44;5096697;28;1361;-58
2023/01/12 13:19:05;;;;;;;;;;;;;;;16.61;47.75;101173.25;5096447;28;1175;-52
2023/01/12 13:21:49;;;;;;;;;;;;;;;16.34;47.18;101173.31;5095653;28;1169;-57
2023/01/12 13:24:15;;;;;;;;;;;;;;;16.30;46.36;101175.75;5098037;28;1194;-58
2023/01/12 13:26:41;;;;;;;;;;;;;;;16.98;47.40;101179.81;5098039;28;1174;-58
2023/01/12 13:29:22;;;;;;;;;;;;;;;16.45;47.37;101174.22;5090012;28;1118;-49
2023/01/12 13:31:48;;;;;;;;;;;;;;;17.22;47.47;101182.94;5080172;28;1043;-56
2023/01/12 13:34:32;;;;;;;;;;;;;;;16.54;48.01;101186.38;5084072;28;869;-50